Time;durP1;ratioP1;P1;durP2;ratioP2;P2;SDS_P1;SDS_P2;PMS_P1;PMS_P2;Temp;Humidity;BMP_temperature;BMP_pressure;BME280_temperature;BME280_humidity;BME280_pressure;Samples;Min_cycle;Max_cycle;Signal;HPM_P1;HPM_P2
2021/05/22 03:01:39;;;;;;;2.13;2.03;;;8.50;99.90;;;;;;5798486;22;89242;-88
2021/05/22 03:04:05;;;;;;;2.22;2.15;;;;;;;;;;4968710;28;87942;-86
2021/05/22 03:06:31;;;;;;;2.25;2.15;;;8.40;99.90;;;;;;4968897;28;87080;-85
2021/05/22 03:08:57;;;;;;;2.25;2.15;;;8.30;99.90;;;;;;4968861;28;87376;-86
2021/05/22 03:11:24;;;;;;;1.85;1.85;;;8.30;99.90;;;;;;4979068;28;87477;-86
2021/05/22 03:13:50;;;;;;;1.50;1.50;;;8.40;99.90;;;;;;4977970;28;87076;-86
2021/05/22 03:16:16;;;;;;;1.80;1.80;;;8.50;99.90;;;;;;4966138;28;86829;-86
2021/05/22 03:18:42;;;;;;;2.03;2.03;;;8.50;99.90;;;;;;4983683;28;86957;-85
2021/05/22 03:21:10;;;;;;;1.80;1.80;;;8.60;99.90;;;;;;4986228;28;88121;-85
2021/05/22 03:23:36;;;;;;;2.03;2.03;;;8.60;99.90;;;;;;4975420;28;88255;-86
2021/05/22 03:26:02;;;;;;;1.58;1.58;;;8.60;99.90;;;;;;4971837;28;87009;-86
2021/05/22 03:28:28;;;;;;;1.65;1.65;;;8.60;99.90;;;;;;4969691;28;87078;-86
2021/05/22 03:30:55;;;;;;;1.90;1.90;;;8.60;99.90;;;;;;4973042;28;87301;-85
2021/05/22 03:33:21;;;;;;;1.73;1.73;;;8.60;99.90;;;;;;4989193;28;88197;-85
2021/05/22 03:35:47;;;;;;;2.33;2.22;;;8.60;99.90;;;;;;4987972;28;86909;-86
2021/05/22 03:38:13;;;;;;;1.95;1.90;;;8.60;99.90;;;;;;4976391;28;85976;-85
2021/05/22 03:40:38;;;;;;;2.05;1.95;;;8.60;99.90;;;;;;4979295;28;86723;-87
2021/05/22 03:43:04;;;;;;;1.92;1.92;;;8.70;99.90;;;;;;4989449;28;87024;-85
2021/05/22 03:45:30;;;;;;;2.17;2.13;;;8.60;99.90;;;;;;4988739;28;87878;-86
2021/05/22 03:47:57;;;;;;;1.70;1.70;;;8.70;99.90;;;;;;4988880;28;86909;-86
2021/05/22 03:50:23;;;;;;;1.88;1.88;;;8.70;99.90;;;;;;4978898;28;87553;-85
2021/05/22 03:52:49;;;;;;;1.55;1.55;;;8.70;99.90;;;;;;4972649;28;87315;-85
2021/05/22 03:55:15;;;;;;;1.60;1.60;;;8.70;99.90;;;;;;4990995;28;86565;-86
2021/05/22 03:57:41;;;;;;;1.90;1.90;;;;;;;;;;4983167;28;86965;-85
2021/05/22 04:00:09;;;;;;;2.60;2.42;;;8.70;99.90;;;;;;4969386;28;88913;-87
2021/05/22 04:02:35;;;;;;;1.75;1.70;;;8.70;99.90;;;;;;4959219;28;88653;-87
2021/05/22 04:05:01;;;;;;;2.03;2.00;;;8.70;99.90;;;;;;4966832;28;86681;-87
2021/05/22 04:07:26;;;;;;;1.70;1.70;;;8.80;99.90;;;;;;4950650;28;87013;-85
2021/05/22 04:09:52;;;;;;;2.75;2.08;;;8.80;99.90;;;;;;4960619;28;88168;-84
2021/05/22 04:12:18;;;;;;;1.80;1.80;;;8.90;99.90;;;;;;4955284;28;87383;-87
2021/05/22 04:14:44;;;;;;;1.95;1.85;;;8.80;99.90;;;;;;4968363;28;86659;-85
2021/05/22 04:17:10;;;;;;;1.55;1.55;;;8.90;99.90;;;;;;4975214;28;86841;-87
2021/05/22 04:19:36;;;;;;;1.38;1.38;;;;;;;;;;4987197;28;87258;-88
2021/05/22 04:22:02;;;;;;;1.90;1.80;;;8.90;99.90;;;;;;4965584;28;88145;-89
2021/05/22 04:24:28;;;;;;;1.83;1.83;;;8.90;99.90;;;;;;4967249;28;86908;-85
2021/05/22 04:26:54;;;;;;;2.20;2.10;;;8.90;99.90;;;;;;4967246;28;86263;-85
2021/05/22 04:29:20;;;;;;;2.15;2.05;;;8.90;99.90;;;;;;4957469;28;86981;-85
2021/05/22 04:31:45;;;;;;;1.83;1.73;;;9.00;99.90;;;;;;4967174;28;86821;-86
2021/05/22 04:34:12;;;;;;;2.20;1.95;;;;;;;;;;4965242;28;87898;-85
2021/05/22 04:36:38;;;;;;;2.10;2.00;;;9.10;99.90;;;;;;4966909;28;86969;-88
2021/05/22 04:39:05;;;;;;;2.05;1.98;;;9.00;99.90;;;;;;4968197;28;88695;-85
2021/05/22 04:41:30;;;;;;;2.55;2.42;;;8.90;99.90;;;;;;4953616;28;88128;-85
2021/05/22 04:43:56;;;;;;;2.35;2.25;;;8.80;99.90;;;;;;4965384;28;86974;-82
2021/05/22 04:46:22;;;;;;;2.35;2.25;;;8.60;99.90;;;;;;4963864;28;86739;-81
2021/05/22 04:48:47;;;;;;;2.50;2.40;;;8.60;99.90;;;;;;4965360;28;88096;-84
2021/05/22 04:51:15;;;;;;;2.60;2.50;;;8.70;99.90;;;;;;4965110;28;88459;-86
2021/05/22 04:53:41;;;;;;;2.28;2.17;;;8.70;99.90;;;;;;4966450;28;86933;-84
2021/05/22 04:56:06;;;;;;;2.42;2.33;;;8.70;99.90;;;;;;4976199;28;86478;-85
2021/05/22 04:58:32;;;;;;;2.05;1.95;;;8.80;99.90;;;;;;4969754;28;88568;-84
2021/05/22 05:00:58;;;;;;;2.03;1.92;;;8.90;99.90;;;;;;4962764;28;88717;-84
2021/05/22 05:03:23;;;;;;;2.38;2.17;;;9.00;99.90;;;;;;4960840;28;87253;-86
2021/05/22 05:05:49;;;;;;;2.40;2.30;;;9.00;99.90;;;;;;4960373;28;87743;-86
2021/05/22 05:08:20;;;;;;;2.42;2.30;;;9.00;99.90;;;;;;4959774;28;87426;-86
2021/05/22 05:10:47;;;;;;;2.85;2.75;;;9.00;99.90;;;;;;4961798;28;87033;-86
2021/05/22 05:13:15;;;;;;;2.67;2.58;;;9.10;99.90;;;;;;4963500;28;86610;-86
2021/05/22 05:15:41;;;;;;;2.05;1.95;;;9.20;99.90;;;;;;4981779;28;85815;-86
2021/05/22 05:18:07;;;;;;;2.33;2.22;;;9.30;99.90;;;;;;4958688;28;87798;-88
2021/05/22 05:20:33;;;;;;;2.42;2.33;;;9.40;99.90;;;;;;4960830;28;86901;-85
2021/05/22 05:22:58;;;;;;;2.05;1.95;;;9.50;99.90;;;;;;4959495;28;87924;-87
2021/05/22 05:25:24;;;;;;;1.75;1.75;;;9.60;99.90;;;;;;4960336;28;87203;-88
2021/05/22 05:27:50;;;;;;;2.83;2.20;;;9.70;99.90;;;;;;4960470;28;86957;-88
2021/05/22 05:30:17;;;;;;;2.20;2.10;;;9.70;99.90;;;;;;4961292;28;87214;-87
2021/05/22 05:32:43;;;;;;;2.25;2.15;;;9.70;99.90;;;;;;4959213;28;88501;-85
2021/05/22 05:35:10;;;;;;;2.30;2.20;;;9.80;99.90;;;;;;4963259;28;86690;-87
2021/05/22 05:37:36;;;;;;;2.97;2.88;;;9.90;99.90;;;;;;4961356;28;87699;-86
2021/05/22 05:40:03;;;;;;;2.95;2.75;;;10.00;99.90;;;;;;4962096;28;86916;-86
2021/05/22 05:42:28;;;;;;;2.25;2.15;;;10.20;99.90;;;;;;4963840;28;87022;-85
2021/05/22 05:44:54;;;;;;;2.58;2.33;;;10.40;99.90;;;;;;4963587;28;87187;-86
2021/05/22 05:47:20;;;;;;;2.78;2.67;;;10.60;99.90;;;;;;4959778;28;87997;-86
2021/05/22 05:49:45;;;;;;;2.35;2.22;;;10.70;99.90;;;;;;4972426;28;88062;-86
2021/05/22 05:52:11;;;;;;;2.80;2.70;;;10.70;99.90;;;;;;4962347;28;87183;-87
2021/05/22 05:54:37;;;;;;;2.25;2.15;;;10.80;99.90;;;;;;4963540;28;86917;-87
2021/05/22 05:57:03;;;;;;;4.22;4.13;;;10.90;99.90;;;;;;4962917;28;87042;-85
2021/05/22 05:59:28;;;;;;;3.05;2.95;;;10.90;99.90;;;;;;4965751;28;87112;-86
2021/05/22 06:01:54;;;;;;;3.50;3.40;;;10.80;99.90;;;;;;4963752;28;87160;-85
2021/05/22 06:04:20;;;;;;;4.25;4.15;;;10.70;99.90;;;;;;4966646;28;86190;-84
2021/05/22 06:06:45;;;;;;;3.85;3.65;;;10.60;99.90;;;;;;4966017;28;87150;-85
2021/05/22 06:09:11;;;;;;;4.28;4.07;;;10.70;99.90;;;;;;4963492;28;86953;-86
2021/05/22 06:11:37;;;;;;;3.17;3.08;;;10.80;99.90;;;;;;4962770;28;87721;-84
2021/05/22 06:14:10;;;;;;;3.80;3.60;;;11.00;99.90;;;;;;4965451;28;86885;-85
2021/05/22 06:16:36;;;;;;;5.03;4.82;;;11.00;99.90;;;;;;4963220;28;87243;-88
2021/05/22 06:19:02;;;;;;;3.95;3.75;;;11.10;99.90;;;;;;4966905;28;87802;-86
2021/05/22 06:21:28;;;;;;;3.20;3.10;;;11.10;99.90;;;;;;4947399;28;86976;-85
2021/05/22 06:23:54;;;;;;;3.38;3.20;;;11.20;99.90;;;;;;4965244;28;86490;-85
2021/05/22 06:26:20;;;;;;;2.22;2.13;;;11.30;99.90;;;;;;4964587;28;86949;-84
2021/05/22 06:28:46;;;;;;;2.70;2.60;;;11.40;99.90;;;;;;4966873;28;87183;-87
2021/05/22 06:31:11;;;;;;;3.90;3.65;;;11.40;99.90;;;;;;4963909;28;87198;-85
2021/05/22 06:33:38;;;;;;;3.13;3.03;;;11.60;99.90;;;;;;4964960;28;86449;-87
2021/05/22 06:36:04;;;;;;;2.03;1.92;;;11.70;99.90;;;;;;4956915;28;87986;-87
2021/05/22 06:38:30;;;;;;;3.35;3.15;;;12.00;99.90;;;;;;4947535;28;91528;-87
2021/05/22 06:40:56;;;;;;;3.05;2.92;;;12.10;99.90;;;;;;4961140;28;86854;-87
2021/05/22 06:43:22;;;;;;;2.90;2.80;;;12.30;99.90;;;;;;4968853;28;86825;-87
2021/05/22 06:46:07;;;;;;;3.15;3.00;;;12.50;99.90;;;;;;4968312;28;87928;-86
2021/05/22 06:48:33;;;;;;;3.00;2.80;;;12.60;99.90;;;;;;4963399;28;87991;-86
2021/05/22 06:51:01;;;;;;;3.92;3.72;;;13.00;99.90;;;;;;4963858;28;86749;-86
2021/05/22 06:53:26;;;;;;;5.82;5.53;;;13.20;99.90;;;;;;4972695;28;86097;-89
2021/05/22 06:55:52;;;;;;;4.40;4.20;;;13.20;99.90;;;;;;4967843;28;87048;-89
2021/05/22 06:58:18;;;;;;;3.33;3.13;;;13.00;99.90;;;;;;4965248;28;87337;-87
2021/05/22 07:00:45;;;;;;;4.75;4.45;;;12.90;99.90;;;;;;4957704;28;87819;-85
2021/05/22 07:03:10;;;;;;;4.90;4.60;;;12.60;99.90;;;;;;4972164;28;86930;-86
2021/05/22 07:05:36;;;;;;;3.97;3.70;;;12.50;99.90;;;;;;4966941;28;86877;-86
2021/05/22 07:08:02;;;;;;;4.20;3.90;;;12.40;99.90;;;;;;4961174;28;87002;-86
2021/05/22 07:10:28;;;;;;;3.92;3.72;;;12.30;99.90;;;;;;4970684;28;86888;-87
2021/05/22 07:12:54;;;;;;;4.07;3.70;;;12.40;99.90;;;;;;4963619;28;88131;-86
2021/05/22 07:15:20;;;;;;;4.25;4.05;;;12.50;99.90;;;;;;4967744;28;87682;-85
2021/05/22 07:17:47;;;;;;;5.68;5.45;;;12.60;99.90;;;;;;4965395;28;87954;-87
2021/05/22 07:20:13;;;;;;;3.53;3.25;;;12.70;99.90;;;;;;4964305;28;87095;-87
2021/05/22 07:22:39;;;;;;;4.93;4.72;;;12.70;99.90;;;;;;4959477;28;87105;-87
2021/05/22 07:25:05;;;;;;;4.55;4.25;;;12.60;99.90;;;;;;4964289;28;89111;-85
2021/05/22 07:27:34;;;;;;;2.90;2.80;;;12.10;99.90;;;;;;4968139;28;88359;-85
2021/05/22 07:30:00;;;;;;;3.40;3.22;;;12.00;99.90;;;;;;4961913;28;88082;-86
2021/05/22 07:32:26;;;;;;;4.40;4.20;;;12.20;99.90;;;;;;4967925;28;86971;-87
2021/05/22 07:34:52;;;;;;;3.65;3.45;;;12.20;99.90;;;;;;4945885;28;87453;-87
2021/05/22 07:37:18;;;;;;;3.95;3.78;;;12.30;99.90;;;;;;4966519;28;86981;-86
2021/05/22 07:39:44;;;;;;;3.50;3.30;;;12.30;99.90;;;;;;4964509;28;87089;-85
2021/05/22 07:42:10;;;;;;;3.78;3.50;;;12.50;99.90;;;;;;4967127;28;86324;-84
2021/05/22 07:44:35;;;;;;;4.55;4.22;;;12.60;99.90;;;;;;4958840;28;87017;-87
2021/05/22 07:47:01;;;;;;;3.58;3.25;;;13.00;99.90;;;;;;4957002;28;86722;-84
2021/05/22 07:49:37;;;;;;;4.90;4.38;;;13.30;99.90;;;;;;4961519;28;87926;-86
2021/05/22 07:52:04;;;;;;;6.30;4.68;;;13.30;99.90;;;;;;4967389;28;86962;-86
2021/05/22 07:54:30;;;;;;;3.90;3.60;;;13.60;99.90;;;;;;4966807;28;88162;-86
2021/05/22 07:56:56;;;;;;;3.55;3.35;;;13.90;98.80;;;;;;4965998;28;87004;-87
2021/05/22 07:59:22;;;;;;;4.13;3.83;;;14.10;99.50;;;;;;4966259;28;86944;-86
2021/05/22 08:01:48;;;;;;;3.70;3.50;;;14.30;99.60;;;;;;4968468;28;87103;-87
2021/05/22 08:04:13;;;;;;;4.28;3.97;;;14.30;97.10;;;;;;4965775;28;87741;-86
2021/05/22 08:06:40;;;;;;;3.72;3.35;;;14.40;98.00;;;;;;4963791;28;86902;-86
2021/05/22 08:09:07;;;;;;;4.68;4.38;;;14.60;96.90;;;;;;4963519;28;87054;-85
2021/05/22 08:11:32;;;;;;;5.05;4.75;;;14.70;94.80;;;;;;4958884;28;87078;-86
2021/05/22 08:14:00;;;;;;;5.75;5.43;;;14.80;94.90;;;;;;4961735;28;87746;-85
2021/05/22 08:16:26;;;;;;;5.63;5.30;;;14.90;94.30;;;;;;4965927;28;87396;-85
2021/05/22 08:18:53;;;;;;;3.45;3.30;;;15.20;94.20;;;;;;4961793;28;87554;-85
2021/05/22 08:21:22;;;;;;;4.70;4.30;;;15.40;93.40;;;;;;4964596;28;87724;-86
2021/05/22 08:23:48;;;;;;;5.13;4.63;;;15.30;90.50;;;;;;4960911;28;86923;-86
2021/05/22 08:26:14;;;;;;;5.22;4.75;;;15.50;93.50;;;;;;4964896;28;87078;-86
2021/05/22 08:28:40;;;;;;;4.05;3.85;;;16.00;90.10;;;;;;4964418;28;87126;-87
2021/05/22 08:31:06;;;;;;;4.93;4.45;;;16.60;87.60;;;;;;4963469;28;86180;-85
2021/05/22 08:33:31;;;;;;;7.95;7.45;;;17.10;86.40;;;;;;4961914;28;86918;-84
2021/05/22 08:35:57;;;;;;;3.88;3.65;;;17.20;81.10;;;;;;4962101;28;86969;-85
2021/05/22 08:38:23;;;;;;;4.93;4.63;;;17.40;77.00;;;;;;4962363;28;87874;-84
2021/05/22 08:40:48;;;;;;;5.18;4.78;;;17.50;71.40;;;;;;4964123;28;87048;-85
2021/05/22 08:43:14;;;;;;;3.40;3.17;;;17.70;70.80;;;;;;4956873;28;87241;-85
2021/05/22 08:45:40;;;;;;;3.83;3.60;;;17.70;68.50;;;;;;4951129;28;86755;-84
2021/05/22 08:48:07;;;;;;;3.97;3.78;;;18.20;65.80;;;;;;4955450;28;87078;-85
2021/05/22 08:50:32;;;;;;;6.50;6.20;;;18.60;66.60;;;;;;4953823;28;86891;-87
2021/05/22 08:52:58;;;;;;;5.88;5.57;;;19.00;60.60;;;;;;4961611;28;87274;-85
2021/05/22 08:55:24;;;;;;;7.63;7.32;;;18.70;63.80;;;;;;4963679;28;88391;-84
2021/05/22 08:57:51;;;;;;;9.82;9.13;;;18.40;65.80;;;;;;4957613;28;87016;-85
2021/05/22 09:00:19;;;;;;;6.10;5.68;;;18.20;66.20;;;;;;4963613;28;86766;-84
2021/05/22 09:02:46;;;;;;;7.32;7.00;;;18.40;67.40;;;;;;4960737;28;87991;-85
2021/05/22 09:05:26;;;;;;;3.95;3.70;;;18.60;62.90;;;;;;4959254;28;88360;-86
2021/05/22 09:07:58;;;;;;;3.83;3.63;;;18.50;58.20;;;;;;4956985;28;86992;-86
2021/05/22 09:10:29;;;;;;;3.35;3.15;;;18.10;59.30;;;;;;4952186;28;87290;-87
2021/05/22 09:13:00;;;;;;;4.93;4.68;;;17.90;58.20;;;;;;4954529;28;87750;-85
2021/05/22 09:15:29;;;;;;;3.85;3.65;;;17.70;56.70;;;;;;4961558;28;87204;-86
2021/05/22 09:17:55;;;;;;;3.90;3.15;;;17.80;57.00;;;;;;4961305;28;87392;-86
2021/05/22 09:20:27;;;;;;;5.57;5.30;;;19.80;58.40;;;;;;4960220;28;86201;-86
2021/05/22 09:23:01;;;;;;;4.20;4.00;;;22.90;52.80;;;;;;4958369;28;88143;-87
2021/05/22 09:25:29;;;;;;;4.05;3.83;;;25.60;47.20;;;;;;4959768;28;87505;-86
2021/05/22 09:27:56;;;;;;;7.50;7.20;;;27.30;44.10;;;;;;4953505;28;88034;-87
2021/05/22 09:30:23;;;;;;;4.00;3.80;;;28.80;37.20;;;;;;4959992;28;87097;-85
2021/05/22 09:32:49;;;;;;;3.92;3.63;;;29.90;38.20;;;;;;4966056;28;86969;-88
2021/05/22 09:35:17;;;;;;;3.55;3.33;;;31.40;37.20;;;;;;4966169;28;86958;-87
2021/05/22 09:37:43;;;;;;;2.38;2.17;;;32.10;36.10;;;;;;4948876;28;86964;-87
2021/05/22 09:40:10;;;;;;;2.75;2.55;;;32.00;33.80;;;;;;4954218;28;87011;-86
2021/05/22 09:42:39;;;;;;;2.30;2.10;;;31.90;33.80;;;;;;4947220;28;87783;-88
2021/05/22 09:45:20;;;;;;;2.50;2.30;;;32.10;33.80;;;;;;4958937;28;87853;-88
2021/05/22 09:47:45;;;;;;;;;;;31.20;32.90;;;;;;4963328;28;87059;-88
2021/05/22 09:50:25;;;;;;;5.70;3.75;;;29.70;34.20;;;;;;4966582;28;86984;-88
2021/05/22 09:52:52;;;;;;;;;;;29.00;34.30;;;;;;4964773;28;88612;-88
2021/05/22 09:55:18;;;;;;;2.60;2.40;;;29.80;34.10;;;;;;4966951;28;87073;-86
2021/05/22 09:57:44;;;;;;;2.65;2.45;;;30.50;34.20;;;;;;4965999;28;86977;-87
2021/05/22 10:00:23;;;;;;;2.63;2.42;;;31.70;33.50;;;;;;4965878;28;87424;-88
2021/05/22 10:02:51;;;;;;;3.45;3.15;;;32.20;32.40;;;;;;4963617;28;87483;-87
2021/05/22 10:05:25;;;;;;;2.97;2.67;;;32.50;31.30;;;;;;4967776;28;87484;-88
2021/05/22 10:07:53;;;;;;;12.68;6.78;;;33.40;33.00;;;;;;4956160;28;86896;-87
2021/05/22 10:10:21;;;;;;;8.90;5.20;;;33.70;32.00;;;;;;4967850;28;86508;-87
2021/05/22 10:12:47;;;;;;;14.43;5.72;;;33.10;32.10;;;;;;4967112;28;87441;-87
2021/05/22 10:15:14;;;;;;;7.60;3.95;;;31.60;32.10;;;;;;4966498;28;86930;-88
2021/05/22 10:17:40;;;;;;;3.17;2.80;;;30.90;33.40;;;;;;4964938;28;87970;-86
2021/05/22 10:20:07;;;;;;;2.28;2.08;;;30.90;32.20;;;;;;4968031;28;86956;-87
2021/05/22 10:22:34;;;;;;;2.35;2.22;;;31.00;31.70;;;;;;4964416;28;87505;-87
2021/05/22 10:25:02;;;;;;;2.90;2.70;;;29.60;32.40;;;;;;4965926;28;86936;-87
2021/05/22 10:27:28;;;;;;;2.55;2.40;;;27.80;34.10;;;;;;4966649;28;87063;-87
2021/05/22 10:29:54;;;;;;;4.40;2.58;;;27.30;35.10;;;;;;4977156;28;87725;-85
2021/05/22 10:32:22;;;;;;;3.08;2.50;;;26.90;36.70;;;;;;4959172;28;88655;-85
2021/05/22 10:34:50;;;;;;;2.67;2.20;;;25.70;39.50;;;;;;4962292;28;86801;-85
2021/05/22 10:37:37;;;;;;;3.05;2.80;;;24.60;40.60;;;;;;4960881;28;86917;-87
2021/05/22 10:40:05;;;;;;;4.55;2.53;;;25.70;40.60;;;;;;4965625;28;87035;-87
2021/05/22 10:42:31;;;;;;;2.72;2.55;;;27.40;38.30;;;;;;4965520;28;88804;-87
2021/05/22 10:44:57;;;;;;;3.15;2.70;;;28.70;35.90;;;;;;4964462;28;87037;-87
2021/05/22 10:47:27;;;;;;;2.22;2.13;;;30.30;35.50;;;;;;4963579;28;87007;-87
2021/05/22 10:49:57;;;;;;;2.70;2.50;;;32.00;33.50;;;;;;4964783;28;88051;-87
2021/05/22 10:52:28;;;;;;;3.10;2.40;;;32.50;32.70;;;;;;4965349;28;87247;-87
2021/05/22 10:55:01;;;;;;;2.50;2.30;;;31.90;32.60;;;;;;4959009;28;87119;-85
2021/05/22 10:57:28;;;;;;;2.35;2.15;;;31.50;32.60;;;;;;4943380;28;86984;-86
2021/05/22 11:00:19;;;;;;;2.10;2.00;;;31.00;33.70;;;;;;4964768;28;86325;-86
2021/05/22 11:02:52;;;;;;;2.30;2.10;;;28.80;33.70;;;;;;4965316;28;88765;-84
2021/05/22 11:05:26;;;;;;;3.30;2.38;;;26.50;36.10;;;;;;4965884;28;87016;-84
2021/05/22 11:08:04;;;;;;;2.25;2.15;;;27.10;37.30;;;;;;4958328;28;87982;-87
2021/05/22 11:10:43;;;;;;;2.70;2.45;;;29.50;36.30;;;;;;4960054;28;87057;-87
2021/05/22 11:13:30;;;;;;;5.60;2.60;;;32.00;33.70;;;;;;4955911;28;87189;-87
2021/05/22 11:15:57;;;;;;;4.40;4.20;;;33.30;30.30;;;;;;4947625;28;87451;-86
2021/05/22 11:18:32;;;;;;;2.83;2.63;;;33.20;30.80;;;;;;4962643;28;87019;-87
2021/05/22 11:21:10;;;;;;;2.10;2.00;;;32.00;31.90;;;;;;4961289;28;86783;-85
2021/05/22 11:23:57;;;;;;;2.70;2.42;;;30.60;33.60;;;;;;4955529;28;87980;-85
2021/05/22 11:26:53;;;;;;;2.60;2.40;;;31.20;33.20;;;;;;4958214;28;89657;-85
2021/05/22 11:29:21;;;;;;;2.15;2.05;;;32.10;33.30;;;;;;4959753;28;87393;-86
2021/05/22 11:31:48;;;;;;;4.30;4.00;;;31.30;33.10;;;;;;4959645;28;87158;-85
2021/05/22 11:34:23;;;;;;;2.60;2.50;;;31.20;33.50;;;;;;4954132;28;88147;-85
2021/05/22 11:37:07;;;;;;;2.60;2.40;;;30.80;33.90;;;;;;4962417;28;87328;-85
2021/05/22 11:39:53;;;;;;;2.53;2.42;;;30.20;34.00;;;;;;4963766;28;86988;-85
2021/05/22 11:42:29;;;;;;;4.25;3.20;;;29.70;34.60;;;;;;4956034;28;87101;-86
2021/05/22 11:44:56;;;;;;;3.38;2.60;;;29.90;35.00;;;;;;4960680;28;88395;-87
2021/05/22 11:47:22;;;;;;;2.95;2.60;;;30.10;34.90;;;;;;4962496;28;88068;-85
2021/05/22 11:49:47;;;;;;;2.63;2.50;;;30.00;34.30;;;;;;4960857;28;87400;-86
2021/05/22 11:52:48;;;;;;;4.10;3.90;;;30.60;33.60;;;;;;4966896;28;87015;-88
2021/05/22 11:55:21;;;;;;;4.35;4.03;;;30.90;32.80;;;;;;4872231;28;87308;-87
2021/05/22 11:58:07;;;;;;;3.63;2.15;;;30.80;32.80;;;;;;4950235;28;87405;-87
2021/05/22 12:00:33;;;;;;;4.35;4.05;;;28.40;34.80;;;;;;4946967;28;88047;-86
2021/05/22 12:02:58;;;;;;;2.65;2.45;;;28.30;35.10;;;;;;4965301;28;87088;-86
2021/05/22 12:05:37;;;;;;;2.30;2.20;;;27.50;36.50;;;;;;4969700;28;87399;-86
2021/05/22 12:08:03;;;;;;;4.38;4.07;;;25.90;38.30;;;;;;4983598;28;86180;-86
2021/05/22 12:10:29;;;;;;;4.25;3.85;;;25.10;38.40;;;;;;4967029;28;86747;-88
2021/05/22 12:13:02;;;;;;;4.57;4.20;;;25.20;39.60;;;;;;4973060;28;87434;-88
2021/05/22 12:15:30;;;;;;;2.58;2.25;;;25.60;40.30;;;;;;4976595;28;86868;-88
2021/05/22 12:18:07;;;;;;;2.45;2.35;;;27.30;38.80;;;;;;4968519;28;86922;-88
2021/05/22 12:20:48;;;;;;;4.15;3.85;;;27.90;35.70;;;;;;4967974;28;86678;-88
2021/05/22 12:23:31;;;;;;;4.15;3.85;;;28.10;36.40;;;;;;4968819;28;87040;-87
2021/05/22 12:25:59;;;;;;;2.50;2.30;;;27.70;36.30;;;;;;4967668;28;88237;-87
2021/05/22 12:28:26;;;;;;;2.20;2.00;;;27.10;36.70;;;;;;4968531;28;88356;-88
2021/05/22 12:30:58;;;;;;;2.53;2.00;;;26.90;37.00;;;;;;4975825;28;87078;-88
2021/05/22 12:33:24;;;;;;;4.15;3.50;;;;;;;;;;4970295;28;86819;-88
2021/05/22 12:36:08;;;;;;;4.13;3.92;;;25.30;37.70;;;;;;4963441;28;87359;-87
2021/05/22 12:38:42;;;;;;;3.75;3.45;;;24.40;39.50;;;;;;4959263;28;87395;-87
2021/05/22 12:41:09;;;;;;;3.83;3.38;;;23.70;40.50;;;;;;4965196;28;87064;-87
2021/05/22 12:43:46;;;;;;;3.90;3.70;;;23.50;41.70;;;;;;4966071;28;85775;-87
2021/05/22 12:46:25;;;;;;;4.00;3.70;;;22.70;41.70;;;;;;4964132;28;87634;-87
2021/05/22 12:48:52;;;;;;;3.88;3.67;;;22.00;42.80;;;;;;4962080;28;86950;-86
2021/05/22 12:51:20;;;;;;;3.45;3.15;;;21.60;42.50;;;;;;4964349;28;88973;-87
2021/05/22 12:53:46;;;;;;;3.80;3.60;;;21.10;43.70;;;;;;4962166;28;87003;-86
2021/05/22 12:56:12;;;;;;;4.40;4.00;;;;;;;;;;4962216;28;87369;-87
2021/05/22 12:58:38;;;;;;;6.07;3.35;;;20.70;46.00;;;;;;4959587;28;87257;-88
2021/05/22 13:01:18;;;;;;;3.30;3.00;;;20.70;47.50;;;;;;4955099;28;87301;-86
2021/05/22 13:03:49;;;;;;;4.05;3.78;;;20.70;47.40;;;;;;4961059;28;87162;-86
2021/05/22 13:06:28;;;;;;;3.50;3.20;;;21.00;48.20;;;;;;4961923;28;86889;-87
2021/05/22 13:09:08;;;;;;;4.32;3.80;;;20.30;48.60;;;;;;4963365;28;86931;-86
2021/05/22 13:11:34;;;;;;;3.70;3.50;;;;;;;;;;4976749;28;87290;-86
2021/05/22 13:14:04;;;;;;;3.72;3.42;;;21.00;51.60;;;;;;4965729;28;87057;-86
2021/05/22 13:16:31;;;;;;;2.72;1.65;;;20.70;48.30;;;;;;4959469;28;88164;-86
2021/05/22 13:18:57;;;;;;;2.50;2.30;;;21.60;46.20;;;;;;4963073;28;88663;-87
2021/05/22 13:21:31;;;;;;;4.60;4.20;;;22.50;44.10;;;;;;4964930;28;87241;-87
2021/05/22 13:23:57;;;;;;;3.67;3.47;;;;;;;;;;4966714;28;86600;-85
2021/05/22 13:26:28;;;;;;;3.85;3.63;;;22.90;49.80;;;;;;4963325;28;87686;-85
2021/05/22 13:28:56;;;;;;;2.53;2.03;;;22.90;45.80;;;;;;4966667;28;87266;-85
2021/05/22 13:31:25;;;;;;;4.05;3.75;;;23.40;42.90;;;;;;4965689;28;87080;-84
2021/05/22 13:33:55;;;;;;;3.75;3.47;;;23.50;42.20;;;;;;4956308;28;85791;-86
2021/05/22 13:36:23;;;;;;;2.20;2.10;;;23.50;42.60;;;;;;4966108;28;86965;-87
2021/05/22 13:38:49;;;;;;;3.10;2.22;;;23.50;43.00;;;;;;4965183;28;87425;-87
2021/05/22 13:41:36;;;;;;;3.80;3.50;;;23.00;42.90;;;;;;4966343;28;87366;-87
2021/05/22 13:44:04;;;;;;;3.85;3.65;;;22.90;46.00;;;;;;4949361;28;86927;-86
2021/05/22 13:46:31;;;;;;;4.05;3.85;;;22.40;44.70;;;;;;4960961;28;87003;-86
2021/05/22 13:48:56;;;;;;;3.88;3.65;;;21.30;46.70;;;;;;4965564;28;87324;-86
2021/05/22 13:51:25;;;;;;;2.90;2.70;;;22.20;45.90;;;;;;4964472;28;87072;-87
2021/05/22 13:53:51;;;;;;;2.42;2.25;;;22.00;46.40;;;;;;4963548;28;87372;-85
2021/05/22 13:56:19;;;;;;;5.88;5.32;;;;;;;;;;4965546;28;88147;-87
2021/05/22 13:58:45;;;;;;;6.82;4.13;;;22.40;45.80;;;;;;4962744;28;86355;-87
2021/05/22 14:01:11;;;;;;;6.22;3.35;;;22.60;44.70;;;;;;4961258;28;86953;-85
2021/05/22 14:03:40;;;;;;;2.63;2.50;;;22.70;45.20;;;;;;4959091;28;87126;-87
2021/05/22 14:06:06;;;;;;;4.78;3.40;;;23.10;42.70;;;;;;4960997;28;88768;-85
2021/05/22 14:08:32;;;;;;;4.60;4.30;;;23.90;43.10;;;;;;4962155;28;87086;-87
2021/05/22 14:10:58;;;;;;;4.20;3.90;;;22.80;44.50;;;;;;4964096;28;86764;-89
2021/05/22 14:13:24;;;;;;;4.07;3.67;;;;;;;;;;4963351;28;86728;-86
2021/05/22 14:15:50;;;;;;;4.60;3.90;;;;;;;;;;4960301;28;88212;-88
2021/05/22 14:18:21;;;;;;;3.00;2.72;;;23.50;41.60;;;;;;4965660;28;87076;-87
2021/05/22 14:20:47;;;;;;;2.95;2.85;;;23.60;42.70;;;;;;4965905;28;87096;-85
2021/05/22 14:23:13;;;;;;;4.35;4.10;;;;;;;;;;4965497;28;86064;-87
2021/05/22 14:25:39;;;;;;;4.70;4.30;;;23.60;42.50;;;;;;4966331;28;87082;-87
2021/05/22 14:28:05;;;;;;;4.15;3.78;;;23.60;41.60;;;;;;4962959;28;87991;-86
2021/05/22 14:30:31;;;;;;;6.82;3.25;;;24.00;42.10;;;;;;4966280;28;87442;-87
2021/05/22 14:32:57;;;;;;;2.80;2.60;;;23.80;42.60;;;;;;4964400;28;86925;-87
2021/05/22 14:35:23;;;;;;;2.90;2.45;;;23.70;43.20;;;;;;4960425;28;88105;-87
2021/05/22 14:37:49;;;;;;;3.72;3.53;;;;;;;;;;4961011;28;87332;-88
2021/05/22 14:40:16;;;;;;;2.53;2.35;;;23.70;41.90;;;;;;4971445;28;87349;-87
2021/05/22 14:42:43;;;;;;;3.03;2.38;;;23.70;41.40;;;;;;4964598;28;87118;-85
2021/05/22 14:45:10;;;;;;;2.80;2.60;;;23.40;41.60;;;;;;4972997;28;87063;-85
2021/05/22 14:47:36;;;;;;;3.90;3.60;;;;;;;;;;4972368;28;88047;-87
2021/05/22 14:50:02;;;;;;;2.50;2.30;;;23.20;42.10;;;;;;4972127;28;86520;-88
2021/05/22 14:52:28;;;;;;;3.60;2.58;;;23.20;43.30;;;;;;4962167;28;87087;-88
2021/05/22 14:54:54;;;;;;;2.80;2.60;;;23.20;42.70;;;;;;4955500;28;88247;-88
2021/05/22 14:57:20;;;;;;;2.88;2.55;;;23.40;42.30;;;;;;4965241;28;88580;-87
2021/05/22 14:59:46;;;;;;;2.78;2.58;;;23.50;42.30;;;;;;4966085;28;87448;-88
2021/05/22 15:02:12;;;;;;;4.40;4.20;;;;;;;;;;4964914;28;86994;-87
2021/05/22 15:04:38;;;;;;;4.22;4.00;;;;;;;;;;4965849;28;87021;-87
2021/05/22 15:07:04;;;;;;;4.22;3.90;;;;;;;;;;4965484;28;87035;-88
2021/05/22 15:09:30;;;;;;;2.55;2.45;;;23.80;41.60;;;;;;4965973;28;86824;-87
2021/05/22 15:11:55;;;;;;;2.60;2.33;;;24.10;41.90;;;;;;4965339;28;86117;-88
2021/05/22 15:14:22;;;;;;;4.32;4.10;;;;;;;;;;4964694;28;87582;-88
2021/05/22 15:16:49;;;;;;;2.90;2.70;;;24.10;40.80;;;;;;4965226;28;87736;-86
2021/05/22 15:19:15;;;;;;;4.40;4.20;;;;;;;;;;4964898;28;87972;-87
2021/05/22 15:21:41;;;;;;;4.43;4.20;;;;;;;;;;4966520;28;86983;-85
2021/05/22 15:24:08;;;;;;;4.10;3.88;;;24.70;42.80;;;;;;4967759;28;88135;-86
2021/05/22 15:26:34;;;;;;;3.80;3.60;;;24.10;40.80;;;;;;4970414;28;87291;-85
2021/05/22 15:29:00;;;;;;;2.40;2.20;;;24.10;41.30;;;;;;4970179;28;86882;-84
2021/05/22 15:31:26;;;;;;;2.72;2.53;;;23.90;42.00;;;;;;4969808;28;86483;-85
2021/05/22 15:33:52;;;;;;;2.40;2.20;;;23.60;42.20;;;;;;4970206;28;88388;-86
2021/05/22 15:36:19;;;;;;;2.72;2.50;;;23.30;42.30;;;;;;4969366;28;86862;-85
2021/05/22 15:38:46;;;;;;;2.60;2.40;;;23.10;42.60;;;;;;4970912;28;86795;-86
2021/05/22 15:41:12;;;;;;;2.80;2.60;;;22.90;43.80;;;;;;4969933;28;87019;-85
2021/05/22 15:43:44;;;;;;;4.30;3.92;;;;;;;;;;4968821;28;88342;-86
2021/05/22 15:46:11;;;;;;;3.17;2.80;;;22.20;42.80;;;;;;4968165;28;87743;-86
2021/05/22 15:59:20;;;;;;;5.10;4.63;;;21.30;46.10;;;;;;4965773;28;86876;-87
2021/05/22 16:01:55;;;;;;;2.53;2.33;;;21.40;45.30;;;;;;4970283;28;86265;-87
2021/05/22 16:07:05;;;;;;;3.30;2.60;;;21.10;44.80;;;;;;4971781;28;86956;-87
2021/05/22 16:09:31;;;;;;;3.83;3.63;;;;;;;;;;4957915;28;87946;-84
2021/05/22 16:11:57;;;;;;;2.33;2.10;;;20.70;45.50;;;;;;4972761;28;87064;-86
2021/05/22 16:14:24;;;;;;;3.47;3.28;;;21.00;51.90;;;;;;4970382;28;87071;-86